createdAt,value
2022-12-26T00:01:29.754Z,9.63
2022-12-26T00:03:58.071Z,9.70
2022-12-26T00:06:29.091Z,10.17
2022-12-26T00:08:57.759Z,10.67
2022-12-26T00:11:26.478Z,10.27
2022-12-26T00:13:56.928Z,10.57
2022-12-26T00:16:25.493Z,10.40
2022-12-26T00:18:53.395Z,10.20
2022-12-26T00:21:22.675Z,9.73
2022-12-26T00:23:50.350Z,9.63
2022-12-26T00:26:21.202Z,10.80
2022-12-26T00:28:49.223Z,10.87
2022-12-26T00:31:24.426Z,10.47
2022-12-26T00:33:52.618Z,11.00
2022-12-26T00:36:24.761Z,11.73
2022-12-26T00:38:52.729Z,11.17
2022-12-26T00:41:22.225Z,11.53
2022-12-26T00:43:50.170Z,11.03
2022-12-26T00:46:18.827Z,11.00
2022-12-26T00:48:46.315Z,11.40
2022-12-26T00:51:14.801Z,10.80
2022-12-26T00:53:42.612Z,10.80
2022-12-26T00:56:10.518Z,10.27
2022-12-26T00:58:38.270Z,10.37
2022-12-26T01:01:20.980Z,11.60
2022-12-26T01:03:50.435Z,11.10
2022-12-26T01:06:18.502Z,11.47
2022-12-26T01:08:45.971Z,11.07
2022-12-26T01:11:15.860Z,11.03
2022-12-26T01:13:43.805Z,11.13
2022-12-26T01:16:11.458Z,11.70
2022-12-26T01:18:38.984Z,11.50
2022-12-26T01:21:10.844Z,12.23
2022-12-26T01:23:38.351Z,13.03
2022-12-26T01:26:18.263Z,13.37
2022-12-26T01:28:49.727Z,11.80
2022-12-26T01:31:18.789Z,12.90
2022-12-26T01:33:47.247Z,12.17
2022-12-26T01:36:16.256Z,12.47
2022-12-26T01:38:44.075Z,14.50
2022-12-26T01:41:19.664Z,14.80
2022-12-26T01:44:07.439Z,15.00
2022-12-26T01:46:45.069Z,15.47
2022-12-26T01:49:38.101Z,15.33
2022-12-26T01:52:16.237Z,14.43
2022-12-26T01:54:48.616Z,20.17
2022-12-26T01:57:43.425Z,23.00
2022-12-26T02:00:12.559Z,22.30
2022-12-26T02:02:59.522Z,26.33
2022-12-26T02:05:35.609Z,32.23
2022-12-26T02:08:09.975Z,29.10
2022-12-26T02:11:08.396Z,25.33
2022-12-26T02:13:38.558Z,22.73
2022-12-26T02:16:09.725Z,25.50
2022-12-26T02:18:37.227Z,25.23
2022-12-26T02:21:38.129Z,36.13
2022-12-26T02:25:03.358Z,32.70
2022-12-26T02:27:48.243Z,40.37
2022-12-26T02:30:52.473Z,41.20
2022-12-26T02:33:31.213Z,34.30
2022-12-26T02:36:01.154Z,14.30
2022-12-26T02:38:50.292Z,13.43
2022-12-26T02:41:47.343Z,11.03
2022-12-26T02:45:13.040Z,11.10
2022-12-26T02:48:06.071Z,11.30
2022-12-26T02:51:13.634Z,12.17
2022-12-26T02:54:43.041Z,14.00
2022-12-26T02:57:37.380Z,14.43
2022-12-26T03:00:35.616Z,14.00
2022-12-26T03:03:25.635Z,15.33
2022-12-26T03:06:32.207Z,14.77
2022-12-26T03:09:33.460Z,11.97
2022-12-26T03:13:10.173Z,14.37
2022-12-26T03:16:15.046Z,14.40
2022-12-26T03:18:58.832Z,19.43
2022-12-26T03:21:40.911Z,14.03
2022-12-26T03:24:11.926Z,17.33
2022-12-26T03:26:48.609Z,20.00
2022-12-26T03:29:42.862Z,20.17
2022-12-26T03:32:13.152Z,17.70
2022-12-26T03:34:45.153Z,15.77
2022-12-26T03:37:47.987Z,16.80
2022-12-26T03:41:06.559Z,15.03
2022-12-26T03:44:21.682Z,13.30
2022-12-26T03:47:31.341Z,13.60
2022-12-26T03:50:33.680Z,11.77
2022-12-26T03:53:47.948Z,10.60
2022-12-26T03:56:46.178Z,8.70
2022-12-26T03:59:44.996Z,10.70
2022-12-26T04:02:33.575Z,10.97
2022-12-26T04:05:24.107Z,10.43
2022-12-26T04:08:19.113Z,9.93
2022-12-26T04:11:16.663Z,10.10
2022-12-26T04:14:23.960Z,10.37
2022-12-26T04:17:42.977Z,15.87
2022-12-26T04:20:25.457Z,15.27
2022-12-26T04:23:25.386Z,10.73
2022-12-26T04:26:22.210Z,10.03
2022-12-26T04:29:08.153Z,8.97
2022-12-26T04:32:29.263Z,8.57
2022-12-26T04:36:02.421Z,9.57
2022-12-26T04:38:57.267Z,12.10
2022-12-26T04:41:44.148Z,13.13
2022-12-26T04:44:13.448Z,13.30
2022-12-26T04:46:50.832Z,13.23
2022-12-26T04:49:37.917Z,15.87
2022-12-26T04:52:12.411Z,13.70
2022-12-26T04:54:42.416Z,13.57
2022-12-26T04:57:11.495Z,13.57
2022-12-26T04:59:38.940Z,12.33
2022-12-26T05:02:24.882Z,13.17
2022-12-26T05:05:11.084Z,15.50
2022-12-26T05:07:57.498Z,16.67
2022-12-26T05:10:28.505Z,14.47
2022-12-26T05:12:56.512Z,12.37
2022-12-26T05:15:24.310Z,11.73
2022-12-26T05:18:10.476Z,10.70
2022-12-26T05:20:46.540Z,9.80
2022-12-26T05:23:47.040Z,10.53
2022-12-26T05:26:41.870Z,12.73
2022-12-26T05:29:09.465Z,14.23
2022-12-26T05:31:37.336Z,14.00
2022-12-26T05:34:10.900Z,14.10
2022-12-26T05:36:46.983Z,14.37
2022-12-26T05:39:14.936Z,13.57
2022-12-26T05:41:42.380Z,12.60
2022-12-26T05:44:11.054Z,11.97
2022-12-26T05:46:40.083Z,11.80
2022-12-26T05:49:08.124Z,10.63
2022-12-26T05:51:36.114Z,12.27
2022-12-26T05:54:04.350Z,12.90
2022-12-26T05:56:31.775Z,12.30
2022-12-26T05:59:01.634Z,11.23
2022-12-26T06:01:30.513Z,10.97
2022-12-26T06:04:00.624Z,10.77
2022-12-26T06:06:28.980Z,10.33
2022-12-26T06:08:57.829Z,11.30
2022-12-26T06:11:27.357Z,11.13
2022-12-26T06:13:55.979Z,11.23
2022-12-26T06:16:23.980Z,11.80
2022-12-26T06:18:51.500Z,11.33
2022-12-26T06:21:20.517Z,11.37
2022-12-26T06:23:51.692Z,10.63
2022-12-26T06:26:19.251Z,11.10
2022-12-26T06:28:47.809Z,16.07
2022-12-26T06:31:24.678Z,11.93
2022-12-26T06:33:58.340Z,10.97
2022-12-26T06:36:28.163Z,11.50
2022-12-26T06:38:58.733Z,11.10
2022-12-26T06:41:26.275Z,12.23
2022-12-26T06:43:54.036Z,19.37
2022-12-26T06:46:24.371Z,43.87
2022-12-26T06:48:52.677Z,26.40
2022-12-26T06:51:26.185Z,15.10
2022-12-26T06:53:54.252Z,12.93
2022-12-26T06:56:27.980Z,13.87
2022-12-26T06:59:05.138Z,13.80
2022-12-26T07:01:35.471Z,24.07
2022-12-26T07:04:04.784Z,18.23
2022-12-26T07:06:37.913Z,19.90
2022-12-26T07:09:14.985Z,12.43
2022-12-26T07:11:45.933Z,12.07
2022-12-26T07:14:13.622Z,11.93
2022-12-26T07:16:44.667Z,12.70
2022-12-26T07:19:15.630Z,10.90
2022-12-26T07:21:43.661Z,10.10
2022-12-26T07:24:20.121Z,8.53
2022-12-26T07:26:48.740Z,8.13
2022-12-26T07:29:16.939Z,7.63
2022-12-26T07:31:44.957Z,6.33
2022-12-26T07:34:12.493Z,6.80
2022-12-26T07:36:41.255Z,7.53
2022-12-26T07:39:09.646Z,9.73
2022-12-26T07:41:55.896Z,10.33
2022-12-26T07:44:24.200Z,10.37
2022-12-26T07:46:51.611Z,6.27
2022-12-26T07:49:19.017Z,5.43
2022-12-26T07:51:46.422Z,5.23
2022-12-26T07:54:13.996Z,5.13
2022-12-26T07:56:42.031Z,5.27
2022-12-26T07:59:17.200Z,5.23
2022-12-26T08:01:45.203Z,5.60
2022-12-26T08:04:14.106Z,5.50
2022-12-26T08:06:41.658Z,6.30
2022-12-26T08:09:13.584Z,5.90
2022-12-26T08:11:41.014Z,7.00
2022-12-26T08:14:13.518Z,6.77
2022-12-26T08:16:41.314Z,7.70
2022-12-26T08:19:09.042Z,6.97
2022-12-26T08:21:36.525Z,5.87
2022-12-26T08:24:06.457Z,6.07
2022-12-26T08:26:34.000Z,6.07
2022-12-26T08:29:03.792Z,5.30
2022-12-26T08:31:31.161Z,5.70
2022-12-26T08:33:58.823Z,5.23
2022-12-26T08:36:26.498Z,5.40
2022-12-26T08:38:54.725Z,5.10
2022-12-26T08:41:22.200Z,5.07
2022-12-26T08:44:25.656Z,4.97
2022-12-26T08:46:41.259Z,5.30
2022-12-26T08:49:08.813Z,5.27
2022-12-26T08:51:37.005Z,5.03
2022-12-26T08:54:05.036Z,5.03
2022-12-26T08:56:32.799Z,5.00
2022-12-26T08:59:00.246Z,4.73
2022-12-26T09:01:33.645Z,5.07
2022-12-26T09:04:04.109Z,4.93
2022-12-26T09:06:37.310Z,4.63
2022-12-26T09:09:06.795Z,4.83
2022-12-26T09:11:34.646Z,4.77
2022-12-26T09:14:04.710Z,4.70
2022-12-26T09:16:41.963Z,4.83
2022-12-26T09:19:14.519Z,4.83
2022-12-26T09:21:42.328Z,4.20
2022-12-26T09:24:16.213Z,3.67
2022-12-26T09:26:44.653Z,3.83
2022-12-26T09:29:13.785Z,4.50
2022-12-26T09:31:41.542Z,4.17
2022-12-26T09:34:09.331Z,4.40
2022-12-26T09:36:39.272Z,4.00
2022-12-26T09:39:08.592Z,4.03
2022-12-26T09:42:19.848Z,3.90
2022-12-26T09:45:16.922Z,4.13
2022-12-26T09:48:27.902Z,3.77
2022-12-26T09:50:55.351Z,4.27
2022-12-26T09:53:35.583Z,3.80
2022-12-26T09:56:53.143Z,4.00
2022-12-26T09:59:15.786Z,3.60
2022-12-26T10:01:43.832Z,4.00
2022-12-26T10:04:30.025Z,4.20
2022-12-26T10:07:00.319Z,3.20
2022-12-26T10:09:55.508Z,3.83
2022-12-26T10:12:34.687Z,3.53
2022-12-26T10:15:26.150Z,3.70
2022-12-26T10:18:15.321Z,3.80
2022-12-26T10:21:24.269Z,3.60
2022-12-26T10:24:11.847Z,3.67
2022-12-26T10:27:06.056Z,4.37
2022-12-26T10:29:52.934Z,3.90
2022-12-26T10:32:46.499Z,3.57
2022-12-26T10:35:32.653Z,3.30
2022-12-26T10:38:40.172Z,3.73
2022-12-26T10:41:42.979Z,3.83
2022-12-26T10:44:13.835Z,3.50
2022-12-26T10:47:28.536Z,4.20
2022-12-26T10:50:02.663Z,4.40
2022-12-26T10:52:38.803Z,3.20
2022-12-26T10:55:28.081Z,3.90
2022-12-26T10:57:58.978Z,4.30
2022-12-26T11:00:28.803Z,3.60
2022-12-26T11:03:07.280Z,3.80
2022-12-26T11:06:18.260Z,3.60
2022-12-26T11:08:47.845Z,3.17
2022-12-26T11:11:47.017Z,3.70
2022-12-26T11:14:38.612Z,3.97
2022-12-26T11:17:26.338Z,3.83
2022-12-26T11:20:14.833Z,3.87
2022-12-26T11:22:46.086Z,3.27
2022-12-26T11:25:25.386Z,4.00
2022-12-26T11:27:59.331Z,3.47
2022-12-26T11:30:31.785Z,4.00
2022-12-26T11:33:13.733Z,3.40
2022-12-26T11:36:07.848Z,3.97
2022-12-26T11:39:05.816Z,3.10
2022-12-26T11:41:41.920Z,3.87
2022-12-26T11:44:13.576Z,3.67
2022-12-26T11:47:02.048Z,3.30
2022-12-26T11:50:01.233Z,3.77
2022-12-26T11:52:52.022Z,3.47
2022-12-26T11:55:37.208Z,3.03
2022-12-26T11:58:10.133Z,3.53
2022-12-26T12:00:54.483Z,3.03
2022-12-26T12:03:49.613Z,3.27
2022-12-26T12:06:32.402Z,3.40
2022-12-26T12:09:11.166Z,3.40
2022-12-26T12:12:10.042Z,3.00
2022-12-26T12:15:03.572Z,3.20
2022-12-26T12:17:49.278Z,3.20
2022-12-26T12:20:59.709Z,3.20
2022-12-26T12:23:59.860Z,3.20
2022-12-26T12:26:43.649Z,4.37
2022-12-26T12:29:41.629Z,4.40
2022-12-26T12:32:26.284Z,3.50
2022-12-26T12:35:27.280Z,3.00
2022-12-26T12:38:24.734Z,4.47
2022-12-26T12:41:29.021Z,3.90
2022-12-26T12:44:10.573Z,4.67
2022-12-26T12:47:03.322Z,3.43
2022-12-26T12:50:00.692Z,3.57
2022-12-26T12:52:55.278Z,3.70
2022-12-26T12:55:43.470Z,3.23
2022-12-26T12:58:51.405Z,3.80
2022-12-26T13:01:26.895Z,3.80
2022-12-26T13:04:16.423Z,3.90
2022-12-26T13:06:52.244Z,3.83
2022-12-26T13:09:41.490Z,4.57
2022-12-26T13:12:22.204Z,3.70
2022-12-26T13:15:06.529Z,3.43
2022-12-26T13:17:53.965Z,4.33
2022-12-26T13:20:39.201Z,4.20
2022-12-26T13:23:48.211Z,3.70
2022-12-26T13:26:25.535Z,4.33
2022-12-26T13:29:40.603Z,3.83
2022-12-26T13:32:17.336Z,4.07
2022-12-26T13:34:46.600Z,3.63
2022-12-26T13:37:32.709Z,3.47
2022-12-26T13:40:04.202Z,3.27
2022-12-26T13:42:57.170Z,3.30
2022-12-26T13:45:49.026Z,3.60
2022-12-26T13:48:19.203Z,3.43
2022-12-26T13:50:55.357Z,3.83
2022-12-26T13:53:26.298Z,4.00
2022-12-26T13:55:56.176Z,3.40
2022-12-26T13:58:36.265Z,3.40
2022-12-26T14:01:30.751Z,3.67
2022-12-26T14:04:38.050Z,4.10
2022-12-26T14:07:30.445Z,4.43
2022-12-26T14:11:03.856Z,5.30
2022-12-26T14:13:57.089Z,4.53
2022-12-26T14:16:54.669Z,4.50
2022-12-26T14:20:20.733Z,4.83
2022-12-26T14:23:26.116Z,4.77
2022-12-26T14:26:02.089Z,4.43
2022-12-26T14:29:07.458Z,4.00
2022-12-26T14:32:19.393Z,3.80
2022-12-26T14:35:20.109Z,3.90
2022-12-26T14:38:05.872Z,4.40
2022-12-26T14:40:38.563Z,4.00
2022-12-26T14:43:17.858Z,4.73
2022-12-26T14:45:51.805Z,4.00
2022-12-26T14:48:19.199Z,4.30
2022-12-26T14:51:14.619Z,3.97
2022-12-26T14:53:44.781Z,4.27
2022-12-26T14:56:18.267Z,5.00
2022-12-26T14:59:28.129Z,4.77
2022-12-26T15:02:28.855Z,4.57
2022-12-26T15:05:14.906Z,4.00
2022-12-26T15:08:09.695Z,4.10
2022-12-26T15:11:10.965Z,4.10
2022-12-26T15:14:21.942Z,4.13
2022-12-26T15:17:27.938Z,6.27
2022-12-26T15:20:16.737Z,4.80
2022-12-26T15:23:32.604Z,4.80
2022-12-26T15:26:33.349Z,4.27
2022-12-26T15:29:24.219Z,4.10
2022-12-26T15:32:37.116Z,4.50
2022-12-26T15:35:40.018Z,5.10
2022-12-26T15:38:29.400Z,4.27
2022-12-26T15:41:14.448Z,3.57
2022-12-26T15:44:14.893Z,3.60
2022-12-26T15:47:04.025Z,3.90
2022-12-26T15:49:56.078Z,4.20
2022-12-26T15:52:58.138Z,3.77
2022-12-26T15:55:59.347Z,3.57
2022-12-26T15:58:59.469Z,4.27
2022-12-26T16:01:55.254Z,5.40
2022-12-26T16:04:35.315Z,4.07
2022-12-26T16:07:37.371Z,4.33
2022-12-26T16:10:25.323Z,4.07
2022-12-26T16:13:01.579Z,4.57
2022-12-26T16:15:30.661Z,4.53
2022-12-26T16:18:19.718Z,5.20
2022-12-26T16:21:07.482Z,9.03
2022-12-26T16:23:39.249Z,6.10
2022-12-26T16:26:30.673Z,5.13
2022-12-26T16:29:01.057Z,4.33
2022-12-26T16:31:31.365Z,6.30
2022-12-26T16:34:00.209Z,5.20
2022-12-26T16:36:32.096Z,4.40
2022-12-26T16:38:59.513Z,4.30
2022-12-26T16:41:31.427Z,4.00
2022-12-26T16:44:36.349Z,3.70
2022-12-26T16:47:13.671Z,4.00
2022-12-26T16:49:43.728Z,4.50
2022-12-26T16:52:39.286Z,3.43
2022-12-26T16:55:37.351Z,3.90
2022-12-26T16:58:35.619Z,3.47
2022-12-26T17:01:08.654Z,3.70
2022-12-26T17:03:56.120Z,3.70
2022-12-26T17:06:39.864Z,3.50
2022-12-26T17:09:17.143Z,2.90
2022-12-26T17:12:02.639Z,3.07
2022-12-26T17:14:35.565Z,2.83
2022-12-26T17:17:28.318Z,3.47
2022-12-26T17:19:59.336Z,2.70
2022-12-26T17:22:33.819Z,2.70
2022-12-26T17:25:29.585Z,2.87
2022-12-26T17:28:09.407Z,2.43
2022-12-26T17:31:17.226Z,2.30
2022-12-26T17:33:48.057Z,2.27
2022-12-26T17:39:13.873Z,2.50
2022-12-26T17:42:00.874Z,2.40
2022-12-26T17:44:43.822Z,2.60
2022-12-26T17:47:28.945Z,2.77
2022-12-26T17:49:57.018Z,2.77
2022-12-26T17:52:28.633Z,3.40
2022-12-26T17:54:58.313Z,3.73
2022-12-26T17:57:29.868Z,3.90
2022-12-26T17:59:58.650Z,3.73
2022-12-26T18:02:26.211Z,3.37
2022-12-26T18:04:54.133Z,3.30
2022-12-26T18:07:30.987Z,3.37
2022-12-26T18:10:01.330Z,3.03
2022-12-26T18:12:28.838Z,3.40
2022-12-26T18:15:01.649Z,3.33
2022-12-26T18:17:33.613Z,3.53
2022-12-26T18:20:02.869Z,3.33
2022-12-26T18:22:31.259Z,3.97
2022-12-26T18:24:58.742Z,4.77
2022-12-26T18:27:33.422Z,4.73
2022-12-26T18:30:01.688Z,7.23
2022-12-26T18:32:32.940Z,10.50
2022-12-26T18:35:00.715Z,9.30
2022-12-26T18:37:30.264Z,11.37
2022-12-26T18:39:57.814Z,7.53
2022-12-26T18:42:26.777Z,7.33
2022-12-26T18:44:54.688Z,8.37
2022-12-26T18:47:22.797Z,7.33
2022-12-26T18:49:51.104Z,6.20
2022-12-26T18:52:18.620Z,6.33
2022-12-26T18:54:46.348Z,5.77
2022-12-26T18:57:19.930Z,7.90
2022-12-26T18:59:48.580Z,4.23
2022-12-26T19:02:19.149Z,4.67
2022-12-26T19:04:48.823Z,4.27
2022-12-26T19:07:20.516Z,4.60
2022-12-26T19:09:56.050Z,4.50
2022-12-26T19:12:24.623Z,4.37
2022-12-26T19:14:52.917Z,3.80
2022-12-26T19:17:20.349Z,5.13
2022-12-26T19:19:48.511Z,5.50
2022-12-26T19:22:15.967Z,5.30
2022-12-26T19:24:43.373Z,5.27
2022-12-26T19:27:10.775Z,4.93
2022-12-26T19:29:38.229Z,5.33
2022-12-26T19:32:05.762Z,5.07
2022-12-26T19:34:33.270Z,6.30
2022-12-26T19:37:00.821Z,8.80
2022-12-26T19:39:29.744Z,15.53
2022-12-26T19:41:57.239Z,14.13
2022-12-26T19:44:24.712Z,10.17
2022-12-26T19:47:11.172Z,9.03
2022-12-26T19:49:40.610Z,13.40
2022-12-26T19:52:08.592Z,10.80
2022-12-26T19:54:36.358Z,12.23
2022-12-26T19:57:04.024Z,7.20
2022-12-26T19:59:32.045Z,7.73
2022-12-26T20:01:59.977Z,5.97
2022-12-26T20:04:27.624Z,8.03
2022-12-26T20:06:55.955Z,9.53
2022-12-26T20:09:23.388Z,7.50
2022-12-26T20:11:50.874Z,6.97
2022-12-26T20:14:22.998Z,7.23
2022-12-26T20:17:09.551Z,11.20
2022-12-26T20:19:37.572Z,8.40
2022-12-26T20:22:06.705Z,7.20
2022-12-26T20:24:35.123Z,8.83
2022-12-26T20:27:03.024Z,8.90
2022-12-26T20:29:31.269Z,8.37
2022-12-26T20:31:59.024Z,7.07
2022-12-26T20:34:26.948Z,6.50
2022-12-26T20:36:54.418Z,5.20
2022-12-26T20:39:22.895Z,5.33
2022-12-26T20:41:50.315Z,7.03
2022-12-26T20:44:18.115Z,6.63
2022-12-26T20:46:46.920Z,12.33
2022-12-26T20:49:14.474Z,8.00
2022-12-26T20:51:44.222Z,6.77
2022-12-26T20:54:14.544Z,6.40
2022-12-26T20:56:43.169Z,6.30
2022-12-26T20:59:10.972Z,6.50
2022-12-26T21:01:40.112Z,6.20
2022-12-26T21:04:08.828Z,5.67
2022-12-26T21:06:37.968Z,6.30
2022-12-26T21:09:08.797Z,6.03
2022-12-26T21:11:39.934Z,7.30
2022-12-26T21:14:12.523Z,11.70
2022-12-26T21:16:50.038Z,8.60
2022-12-26T21:19:18.545Z,8.47
2022-12-26T21:21:49.574Z,9.57
2022-12-26T21:24:30.823Z,11.63
2022-12-26T21:26:59.304Z,12.73
2022-12-26T21:29:31.002Z,11.30
2022-12-26T21:31:59.833Z,9.47
2022-12-26T21:34:32.068Z,10.07
2022-12-26T21:37:18.690Z,8.07
2022-12-26T21:39:47.355Z,9.00
2022-12-26T21:42:14.915Z,8.47
2022-12-26T21:44:42.366Z,10.60
2022-12-26T21:47:09.894Z,9.50
2022-12-26T21:49:37.728Z,9.03
2022-12-26T21:52:07.151Z,9.60
2022-12-26T21:54:53.502Z,9.50
2022-12-26T21:57:21.996Z,9.63
2022-12-26T21:59:59.488Z,11.10
2022-12-26T22:02:55.494Z,12.80
2022-12-26T22:05:27.182Z,14.07
2022-12-26T22:08:01.119Z,15.67
2022-12-26T22:10:50.415Z,18.13
2022-12-26T22:13:19.752Z,19.70
2022-12-26T22:16:07.193Z,16.97
2022-12-26T22:18:37.845Z,11.73
2022-12-26T22:21:16.004Z,9.20
2022-12-26T22:23:44.859Z,8.80
2022-12-26T22:26:15.155Z,6.27
2022-12-26T22:28:43.877Z,8.80
2022-12-26T22:31:33.250Z,5.70
2022-12-26T22:34:12.061Z,7.13
2022-12-26T22:36:40.742Z,6.80
2022-12-26T22:39:09.612Z,5.80
2022-12-26T22:41:38.207Z,6.77
2022-12-26T22:44:05.762Z,5.60
2022-12-26T22:46:33.304Z,5.20
2022-12-26T22:49:00.982Z,5.80
2022-12-26T22:51:28.575Z,5.27
2022-12-26T22:53:58.017Z,6.20
2022-12-26T22:56:26.265Z,5.67
2022-12-26T22:59:00.798Z,6.77
2022-12-26T23:01:28.458Z,7.00
2022-12-26T23:03:56.214Z,6.33
2022-12-26T23:06:31.525Z,6.30
2022-12-26T23:09:02.888Z,4.80
2022-12-26T23:11:35.599Z,4.80
2022-12-26T23:14:06.780Z,5.43
2022-12-26T23:16:52.880Z,2.97
2022-12-26T23:20:05.855Z,2.63
2022-12-26T23:22:33.736Z,2.23
2022-12-26T23:25:38.512Z,1.87
2022-12-26T23:28:25.361Z,1.30
2022-12-26T23:30:52.892Z,1.50
2022-12-26T23:33:20.322Z,1.20
2022-12-26T23:35:48.392Z,1.30
2022-12-26T23:38:16.659Z,1.10
2022-12-26T23:40:44.054Z,1.10
2022-12-26T23:43:11.504Z,1.00
2022-12-26T23:45:43.832Z,1.50
2022-12-26T23:48:12.212Z,1.20
2022-12-26T23:50:40.310Z,1.00
2022-12-26T23:53:08.007Z,2.17
2022-12-26T23:55:35.583Z,1.00
2022-12-26T23:58:02.978Z,1.07
